Time;durP1;ratioP1;P1;durP2;ratioP2;P2;SDS_P1;SDS_P2;PMS_P1;PMS_P2;Temp;Humidity;BMP_temperature;BMP_pressure;BME280_temperature;BME280_humidity;BME280_pressure;Samples;Min_cycle;Max_cycle;Signal;HPM_P1;HPM_P2
2022/07/29 00:00:10;;;;;;;1.75;0.80;;;;;;;16.83;64.72;101841.66;5053173;28;20040;-77
2022/07/29 00:02:36;;;;;;;4.97;1.50;;;;;;;16.81;64.89;101825.84;5043002;28;20344;-76
2022/07/29 00:05:02;;;;;;;0.57;0.57;;;;;;;16.81;65.03;101830.28;5040296;28;20033;-77
2022/07/29 00:07:28;;;;;;;1.48;0.88;;;;;;;16.79;65.11;101834.78;5039929;28;20069;-76
2022/07/29 00:09:53;;;;;;;3.92;0.93;;;;;;;16.79;65.03;101817.13;5036208;28;20099;-76
2022/07/29 00:12:20;;;;;;;2.60;0.88;;;;;;;16.76;65.44;101821.72;5042192;28;20136;-76
2022/07/29 00:14:46;;;;;;;1.42;0.98;;;;;;;16.72;65.34;101814.84;5035951;28;20263;-77
2022/07/29 00:17:11;;;;;;;1.13;0.80;;;;;;;16.69;65.30;101814.09;5037953;28;20033;-76
2022/07/29 00:19:36;;;;;;;2.20;0.90;;;;;;;16.67;65.75;101817.75;5036720;28;20368;-76
2022/07/29 00:22:02;;;;;;;3.28;0.90;;;;;;;16.64;65.90;101815.25;5036529;28;20061;-76
2022/07/29 00:24:28;;;;;;;2.90;0.90;;;;;;;16.62;65.93;101810.03;5035348;28;20061;-76
2022/07/29 00:26:53;;;;;;;2.58;1.38;;;;;;;16.63;65.95;101816.22;5038288;28;20036;-76
2022/07/29 00:29:18;;;;;;;0.90;0.90;;;;;;;16.61;65.95;101812.78;5036725;28;20029;-76
2022/07/29 00:31:44;;;;;;;3.50;0.93;;;;;;;16.59;66.15;101807.56;5042798;28;20021;-76
2022/07/29 00:35:43;;;;;;;1.98;0.90;;;;;;;16.60;66.18;101808.41;5036827;28;20037;-76
2022/07/29 00:36:55;;;;;;;1.20;0.98;;;;;;;16.59;66.07;101809.34;5046346;28;20055;-76
2022/07/29 00:39:24;;;;;;;2.08;0.98;;;;;;;16.56;66.25;101801.56;5036364;28;20041;-76
2022/07/29 00:41:50;;;;;;;0.82;0.80;;;;;;;16.59;66.30;101804.03;5041926;28;20045;-76
2022/07/29 00:44:15;;;;;;;1.52;1.10;;;;;;;16.60;66.02;101803.13;5040181;28;20035;-76
2022/07/29 00:46:41;;;;;;;1.23;0.98;;;;;;;16.57;65.93;101798.88;5040373;28;20029;-76
2022/07/29 00:49:07;;;;;;;2.03;0.90;;;;;;;16.55;66.16;101802.50;5041216;28;20345;-76
2022/07/29 00:51:35;;;;;;;1.27;0.88;;;;;;;16.55;66.26;101797.22;5043108;28;20037;-76
2022/07/29 00:54:00;;;;;;;2.47;1.15;;;;;;;16.55;66.20;101799.84;5041913;28;20104;-76
2022/07/29 00:56:25;;;;;;;3.40;0.98;;;;;;;16.53;66.44;101799.06;5035018;28;20045;-76
2022/07/29 00:58:51;;;;;;;1.67;1.02;;;;;;;16.49;66.46;101793.94;5044278;28;20037;-76
2022/07/29 01:01:17;;;;;;;2.63;1.10;;;;;;;16.49;66.39;101793.09;5036172;28;20240;-76
2022/07/29 01:03:42;;;;;;;1.38;0.90;;;;;;;16.44;66.93;101789.81;5043558;28;20025;-76
2022/07/29 01:06:09;;;;;;;1.55;1.05;;;;;;;16.41;67.07;101788.19;5038881;28;20029;-76
2022/07/29 01:08:35;;;;;;;1.95;0.90;;;;;;;16.43;67.03;101788.13;5043062;28;20096;-76
2022/07/29 01:11:02;;;;;;;2.03;0.93;;;;;;;16.42;66.66;101799.63;5036393;28;20064;-76
2022/07/29 01:13:29;;;;;;;1.42;0.98;;;;;;;16.41;66.75;101789.97;5034525;28;20300;-76
2022/07/29 01:15:59;;;;;;;1.40;1.07;;;;;;;16.38;67.11;101790.13;5035683;28;20052;-76
2022/07/29 01:18:31;;;;;;;5.82;1.20;;;;;;;16.38;67.08;101787.50;5041524;28;20025;-76
2022/07/29 01:21:27;;;;;;;0.88;0.88;;;;;;;16.34;67.11;101784.16;5039367;28;20406;-76
2022/07/29 01:24:04;;;;;;;1.20;0.90;;;;;;;16.37;67.10;101780.47;5043388;28;20553;-76
2022/07/29 01:26:38;;;;;;;2.05;1.10;;;;;;;16.33;67.39;101787.72;5035955;28;20039;-76
2022/07/29 01:29:24;;;;;;;2.60;1.05;;;;;;;16.36;67.43;101779.63;5043127;28;20040;-76
2022/07/29 01:32:05;;;;;;;1.15;0.90;;;;;;;16.38;67.07;101782.22;5043993;28;20352;-76
2022/07/29 01:34:53;;;;;;;1.17;0.90;;;;;;;16.37;67.08;101777.84;5022463;28;20033;-76
2022/07/29 01:37:22;;;;;;;0.83;0.83;;;;;;;16.37;66.88;101781.34;5041573;28;20193;-76
2022/07/29 01:39:50;;;;;;;1.00;0.90;;;;;;;16.37;67.02;101780.47;5036369;28;20025;-76
2022/07/29 01:42:39;;;;;;;3.45;1.20;;;;;;;16.34;67.17;101781.50;5036372;28;20441;-76
2022/07/29 01:45:36;;;;;;;1.73;1.08;;;;;;;16.33;67.34;101771.00;5039795;28;20029;-76
2022/07/29 01:48:06;;;;;;;1.08;0.98;;;;;;;16.35;67.40;101771.78;5040646;28;20197;-76
2022/07/29 01:50:40;;;;;;;1.05;0.80;;;;;;;16.34;67.18;101770.09;5035875;28;20021;-76
2022/07/29 01:53:09;;;;;;;1.08;0.80;;;;;;;16.33;67.16;101766.56;5041215;28;20043;-76
2022/07/29 01:55:40;;;;;;;2.10;0.98;;;;;;;16.29;67.60;101768.50;5036999;28;20237;-76
2022/07/29 01:58:07;;;;;;;1.33;1.00;;;;;;;16.27;67.70;101765.09;5039667;28;20083;-76
2022/07/29 02:00:34;;;;;;;4.10;1.02;;;;;;;16.24;67.95;101759.94;5036476;28;20036;-76
2022/07/29 02:03:13;;;;;;;1.55;0.90;;;;;;;16.20;67.91;101755.75;5035916;28;20224;-76
2022/07/29 02:05:42;;;;;;;1.35;1.10;;;;;;;16.19;68.21;101754.06;5035586;28;20366;-76
2022/07/29 02:08:09;;;;;;;3.63;1.13;;;;;;;16.19;68.26;101750.53;5039387;28;20035;-76
2022/07/29 02:10:37;;;;;;;1.67;1.20;;;;;;;16.17;68.12;101755.91;5039599;28;20052;-76
2022/07/29 02:13:03;;;;;;;4.60;1.10;;;;;;;16.18;67.88;101747.03;5036692;28;20079;-76
2022/07/29 02:15:31;;;;;;;2.35;1.00;;;;;;;16.12;68.57;101755.28;5040636;28;20104;-76
2022/07/29 02:18:05;;;;;;;1.75;1.10;;;;;;;16.12;68.50;101758.78;5036949;28;20384;-76
2022/07/29 02:20:31;;;;;;;1.85;1.10;;;;;;;16.14;68.43;101749.94;5044317;28;20052;-76
2022/07/29 02:22:59;;;;;;;3.13;1.35;;;;;;;16.14;68.56;101745.50;5037852;28;20038;-76
2022/07/29 02:25:26;;;;;;;1.00;0.88;;;;;;;16.15;68.32;101747.19;5042543;28;20037;-76
2022/07/29 02:27:53;;;;;;;1.33;1.10;;;;;;;16.19;68.19;101748.78;5035862;28;20025;-76
2022/07/29 02:30:20;;;;;;;1.83;1.10;;;;;;;16.15;68.54;101747.19;5034878;28;20041;-76
2022/07/29 02:32:48;;;;;;;2.05;1.17;;;;;;;16.16;68.45;101748.06;5035548;28;20045;-76
2022/07/29 02:35:15;;;;;;;1.63;1.20;;;;;;;16.16;68.43;101750.72;5033594;28;20071;-76
2022/07/29 02:37:44;;;;;;;1.27;1.15;;;;;;;16.14;68.52;101750.78;5035663;28;20328;-76
2022/07/29 02:40:14;;;;;;;1.75;1.10;;;;;;;16.13;68.50;101743.78;5035771;28;20021;-76
2022/07/29 02:42:43;;;;;;;1.20;1.10;;;;;;;16.11;68.53;101751.78;5035364;28;20321;-76
2022/07/29 02:45:10;;;;;;;1.48;1.05;;;;;;;16.11;68.47;101750.91;5038036;28;20029;-76
2022/07/29 02:47:46;;;;;;;4.95;1.35;;;;;;;16.08;68.64;101746.66;5037691;28;20040;-76
2022/07/29 02:50:11;;;;;;;1.85;1.00;;;;;;;16.08;68.65;101744.00;5039007;28;20111;-76
2022/07/29 02:52:45;;;;;;;1.38;1.20;;;;;;;16.04;68.77;101739.78;5039136;28;20033;-76
2022/07/29 02:55:31;;;;;;;1.80;1.10;;;;;;;16.04;68.80;101745.06;5039293;28;20340;-76
2022/07/29 02:58:16;;;;;;;1.00;0.90;;;;;;;16.04;68.56;101733.66;5029980;28;20029;-73
2022/07/29 03:00:44;;;;;;;1.23;0.93;;;;;;;16.05;68.67;101741.50;5070730;28;20025;-76
2022/07/29 03:03:14;;;;;;;1.67;1.00;;;;;;;16.04;68.40;101738.94;5037337;28;20025;-76
2022/07/29 03:05:40;;;;;;;0.90;0.90;;;;;;;16.04;68.65;101736.31;5039636;28;20083;-76
2022/07/29 03:08:09;;;;;;;1.35;1.00;;;;;;;16.01;68.93;101734.69;5038014;28;20041;-76
2022/07/29 03:10:34;;;;;;;2.67;1.20;;;;;;;15.98;68.90;101733.97;5039054;28;20037;-76
2022/07/29 03:13:00;;;;;;;1.77;1.17;;;;;;;15.93;69.14;101737.72;5038575;28;20202;-76
2022/07/29 03:15:27;;;;;;;1.25;0.95;;;;;;;15.96;69.01;101738.47;5039296;28;20029;-76
2022/07/29 03:17:53;;;;;;;1.75;1.08;;;;;;;15.94;69.18;101738.56;5037456;28;20037;-76
2022/07/29 03:20:19;;;;;;;0.77;0.75;;;;;;;15.97;69.13;101742.81;5039472;28;20037;-76
2022/07/29 03:22:48;;;;;;;1.40;1.10;;;;;;;15.99;68.66;101736.53;5038272;28;20394;-76
2022/07/29 03:25:15;;;;;;;1.67;0.98;;;;;;;16.02;68.79;101736.38;5043129;28;20037;-76
2022/07/29 03:27:41;;;;;;;1.38;0.80;;;;;;;16.03;68.57;101738.09;5038544;28;20040;-76
2022/07/29 03:30:08;;;;;;;2.05;0.90;;;;;;;16.05;68.30;101730.09;5043210;28;20075;-76
2022/07/29 03:32:34;;;;;;;1.75;1.05;;;;;;;16.03;68.29;101731.97;5036803;28;20387;-76
2022/07/29 03:34:59;;;;;;;1.65;1.10;;;;;;;16.03;68.34;101734.59;5040573;28;20084;-76
2022/07/29 03:37:25;;;;;;;1.40;1.08;;;;;;;16.00;68.69;101727.66;5038897;28;20041;-76
2022/07/29 03:39:54;;;;;;;2.03;1.27;;;;;;;15.98;68.90;101728.69;5039757;28;20039;-76
2022/07/29 03:42:22;;;;;;;1.30;1.20;;;;;;;15.92;68.82;101733.34;5037526;28;20034;-76
2022/07/29 03:44:50;;;;;;;1.20;0.93;;;;;;;15.92;68.74;101721.94;5040384;28;20029;-76
2022/07/29 03:47:18;;;;;;;1.25;1.15;;;;;;;15.90;69.14;101732.56;5036469;28;20048;-76
2022/07/29 03:49:46;;;;;;;;;;;;;;;15.91;69.00;101734.25;5040274;28;20086;-76
2022/07/29 03:52:12;;;;;;;2.83;1.17;;;;;;;15.92;68.52;101733.34;5036303;28;20208;-76
2022/07/29 03:54:38;;;;;;;1.42;1.20;;;;;;;15.91;68.85;101731.63;5039245;28;20229;-76
2022/07/29 03:57:05;;;;;;;1.38;1.00;;;;;;;15.92;68.91;101724.56;5037609;28;20136;-76
2022/07/29 03:59:33;;;;;;;2.38;0.98;;;;;;;15.91;68.70;101721.03;5037702;28;20033;-76
2022/07/29 04:02:01;;;;;;;2.53;1.25;;;;;;;15.89;68.62;101727.34;5038257;28;20259;-76
2022/07/29 04:04:27;;;;;;;2.00;1.27;;;;;;;15.91;68.49;101730.75;5041309;28;20040;-76
2022/07/29 04:06:52;;;;;;;2.33;1.45;;;;;;;15.89;68.65;101735.28;5036923;28;20040;-76
2022/07/29 04:09:18;;;;;;;1.55;1.20;;;;;;;15.91;68.64;101733.41;5035333;28;20033;-76
2022/07/29 04:11:44;;;;;;;3.30;1.35;;;;;;;15.87;68.91;101735.34;5036975;28;20052;-76
2022/07/29 04:14:10;;;;;;;1.55;1.30;;;;;;;15.87;68.94;101737.13;5034523;28;20049;-76
2022/07/29 04:16:35;;;;;;;3.30;1.88;;;;;;;15.85;69.17;101733.72;5035655;28;20045;-76
2022/07/29 04:19:01;;;;;;;1.40;1.30;;;;;;;15.81;69.25;101733.00;5034490;28;20033;-76
2022/07/29 04:21:26;;;;;;;1.40;1.20;;;;;;;15.81;68.96;101743.56;5037493;28;20140;-76
2022/07/29 04:23:51;;;;;;;3.17;1.80;;;;;;;15.75;69.53;101741.22;5039786;28;20097;-76
2022/07/29 04:26:18;;;;;;;3.33;1.52;;;;;;;15.76;69.57;101739.44;5038665;28;20044;-76
2022/07/29 04:28:44;;;;;;;2.80;1.50;;;;;;;15.77;69.31;101731.47;5035552;28;20095;-76
2022/07/29 04:31:11;;;;;;;2.88;1.60;;;;;;;15.73;69.26;101729.84;5041722;28;20037;-76
2022/07/29 04:33:36;;;;;;;1.52;1.42;;;;;;;15.69;69.58;101728.28;5035042;28;20405;-76
2022/07/29 04:36:02;;;;;;;1.80;1.70;;;;;;;15.65;69.82;101726.72;5037085;28;20041;-76
2022/07/29 04:38:27;;;;;;;3.33;1.63;;;;;;;15.66;69.82;101728.41;5032053;28;20056;-76
2022/07/29 04:40:53;;;;;;;1.92;1.65;;;;;;;15.61;70.31;101731.28;5035781;28;20045;-76
2022/07/29 04:43:18;;;;;;;3.55;1.52;;;;;;;15.63;70.06;101734.72;5034773;28;20233;-76
2022/07/29 04:45:43;;;;;;;3.75;1.48;;;;;;;15.65;69.79;101735.50;5042723;28;20086;-76
2022/07/29 04:48:09;;;;;;;2.42;1.60;;;;;;;15.67;69.88;101730.16;5041277;28;20037;-76
2022/07/29 04:50:37;;;;;;;2.72;1.48;;;;;;;15.69;69.55;101726.50;5042960;28;20048;-76
2022/07/29 04:53:02;;;;;;;1.63;1.52;;;;;;;15.69;69.69;101729.13;5033691;28;20080;-76
2022/07/29 04:55:28;;;;;;;1.58;1.48;;;;;;;15.71;69.79;101723.78;5036279;28;20041;-76
2022/07/29 04:57:53;;;;;;;1.40;1.30;;;;;;;15.70;69.35;101728.22;5036452;28;20061;-76
2022/07/29 05:00:19;;;;;;;3.78;1.60;;;;;;;15.70;69.24;101730.00;5034726;28;20039;-76
2022/07/29 05:02:44;;;;;;;1.45;1.35;;;;;;;15.70;69.30;101722.09;5038336;28;20253;-76
2022/07/29 05:05:09;;;;;;;2.72;1.70;;;;;;;15.70;69.37;101736.13;5034779;28;20039;-76
2022/07/29 05:07:35;;;;;;;2.25;1.40;;;;;;;15.68;69.54;101740.63;5038006;28;20033;-76
2022/07/29 05:10:00;;;;;;;1.27;1.10;;;;;;;15.70;69.36;101735.28;5033556;28;20352;-76
2022/07/29 05:12:26;;;;;;;1.20;1.10;;;;;;;15.71;69.34;101737.81;5038227;28;20233;-76
2022/07/29 05:14:51;;;;;;;3.60;1.55;;;;;;;15.73;69.63;101740.41;5033265;28;20363;-76
2022/07/29 05:17:17;;;;;;;2.50;1.40;;;;;;;15.73;69.23;101737.75;5037801;28;20041;-76
2022/07/29 05:19:43;;;;;;;4.38;1.33;;;;;;;15.73;69.28;101733.34;5033535;28;20037;-76
2022/07/29 05:22:08;;;;;;;1.75;1.20;;;;;;;15.74;69.36;101739.53;5037571;28;20064;-76
2022/07/29 05:24:34;;;;;;;2.22;1.35;;;;;;;15.75;69.26;101738.56;5026454;28;20038;-76
2022/07/29 05:26:59;;;;;;;2.13;1.60;;;;;;;15.74;68.90;101744.81;5037704;28;20061;-76
2022/07/29 05:29:25;;;;;;;1.98;1.50;;;;;;;15.72;69.17;101746.63;5033791;28;20075;-76
2022/07/29 05:31:51;;;;;;;2.28;1.65;;;;;;;15.71;69.50;101752.81;5038076;28;20314;-76
2022/07/29 05:34:17;;;;;;;2.60;1.67;;;;;;;15.67;69.39;101756.56;5033974;28;20041;-76
2022/07/29 05:36:42;;;;;;;2.45;1.48;;;;;;;15.71;69.51;101752.81;5036725;28;20041;-76
2022/07/29 05:39:08;;;;;;;1.65;1.55;;;;;;;15.72;69.68;101751.91;5040796;28;20041;-76
2022/07/29 05:41:33;;;;;;;1.30;1.20;;;;;;;15.76;69.47;101750.00;5037876;28;20206;-76
2022/07/29 05:43:58;;;;;;;3.85;1.42;;;;;;;15.72;69.14;101752.75;5035401;28;20045;-76
2022/07/29 05:46:24;;;;;;;2.05;1.65;;;;;;;15.71;69.35;101755.47;5020228;28;20041;-76
2022/07/29 05:48:49;;;;;;;3.42;1.67;;;;;;;15.70;69.57;101754.63;5035718;28;20104;-76
2022/07/29 05:51:15;;;;;;;3.60;1.83;;;;;;;15.67;69.54;101757.41;5041648;28;20209;-76
2022/07/29 05:53:40;;;;;;;1.90;1.55;;;;;;;15.71;69.88;101752.81;5033826;28;20033;-76
2022/07/29 05:56:07;;;;;;;1.80;1.65;;;;;;;15.72;69.59;101751.91;5038457;28;20037;-76
2022/07/29 05:58:33;;;;;;;1.73;1.60;;;;;;;15.68;69.34;101758.25;5032607;28;20033;-76
2022/07/29 06:01:01;;;;;;;2.45;1.70;;;;;;;15.66;69.55;101760.97;5034105;28;20063;-76
2022/07/29 06:03:26;;;;;;;5.70;2.10;;;;;;;15.68;69.90;101755.59;5032120;28;20052;-76
2022/07/29 06:05:52;;;;;;;2.50;1.50;;;;;;;15.69;69.89;101755.53;5038650;28;20064;-76
2022/07/29 06:08:18;;;;;;;2.60;1.63;;;;;;;15.70;69.94;101753.78;5032689;28;20037;-76
2022/07/29 06:10:44;;;;;;;2.45;1.40;;;;;;;15.70;69.67;101757.25;5036021;28;20071;-76
2022/07/29 06:13:09;;;;;;;4.63;1.60;;;;;;;15.71;69.22;101764.25;5036061;28;20029;-76
2022/07/29 06:15:35;;;;;;;4.35;1.95;;;;;;;15.72;69.51;101759.84;5032200;28;20048;-76
2022/07/29 06:18:00;;;;;;;2.85;1.60;;;;;;;15.74;68.88;101769.41;5036723;28;20132;-76
2022/07/29 06:20:29;;;;;;;2.85;2.10;;;;;;;15.74;69.11;101755.38;5037177;28;20505;-76
2022/07/29 06:22:54;;;;;;;3.95;1.70;;;;;;;15.74;69.59;101758.84;5042565;28;20041;-76
2022/07/29 06:25:20;;;;;;;5.63;1.75;;;;;;;15.77;69.51;101760.50;5037628;28;20048;-76
2022/07/29 06:27:45;;;;;;;4.30;1.70;;;;;;;15.81;69.57;101761.19;5042608;28;20041;-76
2022/07/29 06:30:11;;;;;;;1.85;1.50;;;;;;;15.84;69.39;101767.19;5036156;28;20046;-76
2022/07/29 06:32:36;;;;;;;1.40;1.30;;;;;;;15.86;69.03;101764.47;5038718;28;20341;-76
2022/07/29 06:35:02;;;;;;;2.17;1.55;;;;;;;15.83;69.26;101768.13;5036631;28;20034;-76
2022/07/29 06:37:27;;;;;;;2.70;1.50;;;;;;;15.84;69.53;101769.81;5035969;28;20056;-75
2022/07/29 06:40:59;;;;;;;3.00;1.48;;;;;;;15.88;69.44;101776.69;5037391;28;20029;-76
2022/07/29 06:42:42;;;;;;;2.08;1.55;;;;;;;15.92;69.16;101774.75;5038217;28;20037;-76
2022/07/29 06:45:08;;;;;;;1.70;1.48;;;;;;;15.93;69.44;101773.81;5036521;28;20033;-76
2022/07/29 06:47:33;;;;;;;6.07;1.80;;;;;;;15.93;69.25;101779.97;5043136;28;20060;-76
2022/07/29 06:49:59;;;;;;;6.60;2.08;;;;;;;15.96;69.62;101773.66;5035719;28;20368;-76
2022/07/29 06:52:25;;;;;;;4.70;1.60;;;;;;;15.99;69.59;101784.09;5037391;28;20029;-76
2022/07/29 06:54:51;;;;;;;2.75;1.75;;;;;;;16.05;69.10;101775.00;5037590;28;20384;-76
2022/07/29 06:57:16;;;;;;;2.60;1.60;;;;;;;16.07;69.37;101783.72;5036929;28;20041;-76
2022/07/29 06:59:41;;;;;;;2.78;1.58;;;;;;;16.10;68.97;101783.59;5037456;28;20048;-76
2022/07/29 07:02:07;;;;;;;3.83;1.88;;;;;;;16.14;69.11;101786.94;5035429;28;20029;-76
2022/07/29 07:04:33;;;;;;;3.50;1.73;;;;;;;16.15;68.36;101781.53;5037024;28;20347;-76
2022/07/29 07:06:59;;;;;;;1.63;1.40;;;;;;;16.19;68.43;101787.53;5035672;28;20110;-76
2022/07/29 07:09:24;;;;;;;2.42;1.60;;;;;;;16.23;68.50;101782.03;5036243;28;20037;-76
2022/07/29 07:11:50;;;;;;;4.07;1.70;;;;;;;16.26;68.76;101789.81;5039077;28;20239;-76
2022/07/29 07:14:16;;;;;;;2.22;1.40;;;;;;;16.27;68.27;101791.50;5038108;28;20093;-76
2022/07/29 07:16:41;;;;;;;4.90;1.75;;;;;;;16.28;68.24;101787.06;5039198;28;20037;-76
2022/07/29 07:19:07;;;;;;;5.38;1.70;;;;;;;16.27;68.09;101793.31;5040556;28;20340;-76
2022/07/29 07:21:33;;;;;;;2.40;1.42;;;;;;;16.26;67.59;101795.09;5039162;28;20029;-76
2022/07/29 07:23:59;;;;;;;2.30;1.75;;;;;;;16.27;67.88;101785.38;5037523;28;20360;-76
2022/07/29 07:26:26;;;;;;;2.72;1.75;;;;;;;16.28;67.95;101793.25;5028591;28;20035;-76
2022/07/29 07:28:51;;;;;;;1.70;1.42;;;;;;;16.30;67.70;101804.59;5034900;28;20042;-76
2022/07/29 07:31:17;;;;;;;3.63;1.65;;;;;;;16.29;67.84;101805.50;5034352;28;20037;-76
2022/07/29 07:33:42;;;;;;;3.97;1.80;;;;;;;16.27;68.62;101804.72;5039196;28;20410;-76
2022/07/29 07:36:08;;;;;;;2.03;1.67;;;;;;;16.27;68.64;101802.09;5040871;28;20436;-76
2022/07/29 07:38:33;;;;;;;2.15;1.80;;;;;;;16.31;68.47;101800.16;5037816;28;20332;-76
2022/07/29 07:40:59;;;;;;;6.22;1.70;;;;;;;16.33;68.37;101794.78;5034995;28;20030;-76
2022/07/29 07:43:25;;;;;;;2.13;1.83;;;;;;;16.36;68.52;101808.72;5041954;28;20321;-76
2022/07/29 07:45:50;;;;;;;5.38;1.80;;;;;;;16.38;68.43;101798.06;5047424;28;20101;-76
2022/07/29 07:48:16;;;;;;;2.25;1.75;;;;;;;16.41;68.04;101801.41;5041911;28;20032;-76
2022/07/29 07:50:41;;;;;;;5.88;1.70;;;;;;;16.46;68.53;101806.44;5038925;28;20315;-76
2022/07/29 07:53:06;;;;;;;3.53;2.13;;;;;;;16.51;68.00;101807.09;5040808;28;20033;-76
2022/07/29 07:55:32;;;;;;;2.25;1.80;;;;;;;16.58;67.99;101803.19;5037254;28;20041;-76
2022/07/29 07:57:57;;;;;;;2.75;1.88;;;;;;;16.64;67.81;101796.75;5052695;28;20358;-76
2022/07/29 08:00:22;;;;;;;2.85;1.50;;;;;;;16.68;67.67;101791.22;5035913;28;20045;-76
2022/07/29 08:02:48;;;;;;;4.18;1.80;;;;;;;16.72;67.06;101788.41;5043644;28;20232;-76
2022/07/29 08:05:16;;;;;;;2.88;2.00;;;;;;;16.78;66.74;101796.03;5039005;28;20037;-77
2022/07/29 08:07:44;;;;;;;2.40;1.60;;;;;;;16.80;66.90;101784.44;5035972;28;20052;-76
2022/07/29 08:10:10;;;;;;;2.43;1.70;;;;;;;16.85;67.00;101785.09;5042831;28;20103;-76
2022/07/29 08:12:35;;;;;;;4.10;1.67;;;;;;;16.89;66.15;101783.16;5034813;28;20328;-76
2022/07/29 08:15:00;;;;;;;2.60;1.50;;;;;;;16.94;66.14;101785.56;5044740;28;20032;-76
2022/07/29 08:17:26;;;;;;;3.30;1.88;;;;;;;16.97;65.66;101786.25;5035088;28;20037;-76
2022/07/29 08:19:52;;;;;;;3.05;1.92;;;;;;;17.02;65.40;101792.13;5040202;28;20104;-76
2022/07/29 08:22:17;;;;;;;7.38;1.92;;;;;;;17.07;65.76;101800.69;5033370;28;20423;-76
2022/07/29 08:24:43;;;;;;;13.45;2.03;;;;;;;17.13;65.26;101796.88;5034294;28;20044;-76
2022/07/29 08:27:09;;;;;;;2.63;1.83;;;;;;;17.18;65.31;101794.84;5034466;28;20418;-77
2022/07/29 08:29:35;;;;;;;2.55;1.70;;;;;;;17.21;65.34;101793.84;5038429;28;20033;-76
2022/07/29 08:32:01;;;;;;;3.53;1.77;;;;;;;17.25;65.38;101796.22;5037877;28;20045;-76
2022/07/29 08:34:26;;;;;;;2.97;2.50;;;;;;;17.33;65.18;101798.44;5035450;28;20021;-76
2022/07/29 08:36:55;;;;;;;1.80;1.70;;;;;;;17.37;65.73;101792.06;5033107;28;20554;-76
2022/07/29 08:39:22;;;;;;;4.78;2.38;;;;;;;17.43;65.59;101804.13;5034010;28;20352;-77
2022/07/29 08:41:47;;;;;;;6.15;2.20;;;;;;;17.49;64.94;101803.78;5032458;28;20454;-76
2022/07/29 08:44:16;;;;;;;3.30;1.77;;;;;;;17.54;64.91;101787.66;5033175;28;21022;-76
2022/07/29 08:46:42;;;;;;;4.25;2.10;;;;;;;17.59;64.97;101791.75;5036751;28;20064;-76
2022/07/29 08:49:07;;;;;;;2.42;1.92;;;;;;;17.65;64.82;101799.34;5035637;28;20083;-76
2022/07/29 08:51:35;;;;;;;2.53;1.80;;;;;;;17.70;65.11;101807.03;5040080;28;20309;-77
2022/07/29 08:54:00;;;;;;;5.35;1.70;;;;;;;17.73;65.01;101806.84;5036687;28;20083;-76
2022/07/29 08:56:26;;;;;;;3.17;1.80;;;;;;;17.76;64.62;101813.78;5040332;28;20061;-76
2022/07/29 08:58:53;;;;;;;5.53;1.85;;;;;;;17.80;64.78;101810.03;5036079;28;20217;-77
2022/07/29 09:01:23;;;;;;;4.28;2.10;;;;;;;17.84;65.02;101811.56;5041598;28;20041;-76
2022/07/29 09:03:49;;;;;;;4.85;1.90;;;;;;;17.85;65.03;101808.00;5041191;28;20335;-76
2022/07/29 09:06:17;;;;;;;4.15;1.80;;;;;;;17.91;65.26;101809.47;5036817;28;20041;-76
2022/07/29 09:08:44;;;;;;;2.58;1.80;;;;;;;17.97;65.23;101806.44;5034459;28;20029;-77
2022/07/29 09:11:11;;;;;;;1.70;1.60;;;;;;;17.98;64.85;101795.78;5040863;28;20025;-76
2022/07/29 09:13:36;;;;;;;4.32;1.98;;;;;;;18.01;64.96;101794.75;5030961;28;20127;-77
2022/07/29 09:16:02;;;;;;;3.42;2.10;;;;;;;18.06;64.56;101789.19;5030219;28;20107;-77
2022/07/29 09:18:38;;;;;;;3.08;1.50;;;;;;;18.10;64.92;101796.00;5034424;28;20041;-77
2022/07/29 09:24:13;;;;;;;2.15;1.65;;;;;;;18.20;64.71;101797.19;5034008;28;20127;-77
2022/07/29 09:26:41;;;;;;;6.63;2.10;;;;;;;18.22;64.81;101796.16;5040858;28;20045;-77
2022/07/29 09:29:14;;;;;;;3.60;1.90;;;;;;;18.27;64.96;101797.72;5033571;28;20025;-77
2022/07/29 09:31:48;;;;;;;3.70;1.85;;;;;;;18.32;65.35;101793.84;5039405;28;20037;-77
2022/07/29 09:34:16;;;;;;;4.43;2.17;;;;;;;18.36;65.36;101800.66;5033270;28;20025;-77
2022/07/29 09:36:44;;;;;;;4.83;2.10;;;;;;;18.40;65.63;101794.22;5034192;28;20047;-77
2022/07/29 09:39:09;;;;;;;2.47;1.85;;;;;;;18.46;65.11;101789.53;5038165;28;20045;-77
2022/07/29 09:41:53;;;;;;;3.78;1.80;;;;;;;18.49;65.10;101792.00;5034662;28;20351;-77
2022/07/29 09:44:19;;;;;;;3.35;1.73;;;;;;;18.54;64.92;101789.94;5032883;28;20033;-77
2022/07/29 09:47:06;;;;;;;2.47;1.85;;;;;;;18.59;64.80;101788.72;5037130;28;20374;-77
2022/07/29 09:49:33;;;;;;;5.05;1.95;;;;;;;18.64;64.87;101790.22;5025899;28;20068;-77
2022/07/29 09:52:09;;;;;;;6.82;2.05;;;;;;;18.69;64.72;101789.00;5033711;28;20052;-77
2022/07/29 09:54:38;;;;;;;4.07;2.22;;;;;;;18.72;63.80;101787.97;5029710;28;20200;-76
2022/07/29 09:57:07;;;;;;;3.05;2.60;;;;;;;18.75;63.51;101787.78;5036707;28;20174;-77
2022/07/29 09:59:33;;;;;;;4.43;2.20;;;;;;;18.77;63.11;101784.09;5031906;28;20025;-77
2022/07/29 10:01:58;;;;;;;4.10;1.65;;;;;;;18.82;63.16;101793.63;5036854;28;20041;-77
2022/07/29 10:04:36;;;;;;;8.07;2.60;;;;;;;18.87;62.77;101792.38;5032886;28;20033;-77
2022/07/29 10:07:04;;;;;;;4.25;2.22;;;;;;;18.89;62.26;101794.97;5040196;28;20332;-77
2022/07/29 10:09:30;;;;;;;3.85;2.10;;;;;;;18.90;62.89;101792.22;5038535;28;20037;-77
2022/07/29 10:12:10;;;;;;;5.68;2.40;;;;;;;18.95;62.75;101784.78;5039016;28;20372;-77
2022/07/29 10:14:36;;;;;;;4.90;2.38;;;;;;;19.02;63.57;101790.59;5038255;28;20033;-77
2022/07/29 10:17:03;;;;;;;3.22;2.53;;;;;;;19.07;63.03;101788.50;5039401;28;20042;-77
2022/07/29 10:19:30;;;;;;;3.13;2.35;;;;;;;19.11;63.26;101778.56;5033917;28;20045;-77
2022/07/29 10:22:02;;;;;;;4.72;2.65;;;;;;;19.15;63.30;101780.91;5033478;28;20364;-77
2022/07/29 10:24:29;;;;;;;5.65;2.55;;;;;;;19.19;63.78;101781.56;5035064;28;20052;-77
2022/07/29 10:26:56;;;;;;;5.70;2.38;;;;;;;19.21;62.37;101779.72;5033147;28;20029;-77
2022/07/29 10:29:22;;;;;;;2.97;2.30;;;;;;;19.25;61.94;101778.56;5033611;28;20175;-77
2022/07/29 10:32:10;;;;;;;4.78;2.25;;;;;;;19.31;60.82;101785.28;5033216;28;20049;-77
2022/07/29 10:35:06;;;;;;;3.17;2.00;;;;;;;19.39;60.98;101788.31;5036206;28;20099;-77
2022/07/29 10:37:39;;;;;;;2.75;1.92;;;;;;;19.44;60.70;101785.38;5031529;28;20048;-77
2022/07/29 10:43:25;;;;;;;2.58;1.98;;;;;;;19.51;60.36;101776.06;5033044;28;20278;-77
2022/07/29 10:45:57;;;;;;;3.08;1.60;;;;;;;19.53;61.12;101777.66;5034520;28;20342;-77
2022/07/29 10:48:22;;;;;;;4.50;2.03;;;;;;;19.56;59.62;101782.78;5028710;28;20034;-77
2022/07/29 10:51:03;;;;;;;3.40;1.85;;;;;;;19.60;59.46;101777.28;5037489;28;20124;-77
2022/07/29 10:53:49;;;;;;;2.45;1.50;;;;;;;19.65;58.85;101775.19;5032688;28;20305;-77
2022/07/29 10:56:29;;;;;;;5.63;2.00;;;;;;;19.71;58.90;101769.47;5038853;28;20275;-77
2022/07/29 10:59:20;;;;;;;3.25;1.63;;;;;;;19.78;58.53;101775.28;5033360;28;20029;-77
2022/07/29 11:01:46;;;;;;;3.45;1.73;;;;;;;19.83;58.22;101770.50;5038391;28;20206;-77
2022/07/29 11:04:12;;;;;;;7.80;1.73;;;;;;;19.90;57.23;101761.16;5033163;28;20057;-77
2022/07/29 11:07:05;;;;;;;2.47;1.63;;;;;;;19.97;57.72;101769.59;5040735;28;20211;-77
2022/07/29 11:09:31;;;;;;;5.88;1.98;;;;;;;20.04;57.96;101765.59;5037455;28;20236;-77
2022/07/29 11:11:57;;;;;;;2.38;1.55;;;;;;;20.10;56.62;101767.84;5039236;28;20037;-77
2022/07/29 11:14:56;;;;;;;3.10;1.80;;;;;;;20.18;55.26;101768.19;5036143;28;20045;-77
2022/07/29 11:17:22;;;;;;;1.63;1.40;;;;;;;20.23;55.97;101760.75;5051166;28;20026;-77
2022/07/29 11:19:47;;;;;;;2.95;1.70;;;;;;;20.27;56.56;101761.41;5035143;28;20363;-77
2022/07/29 11:22:32;;;;;;;3.75;1.60;;;;;;;20.32;57.12;101751.31;5034502;28;20336;-77
2022/07/29 11:25:19;;;;;;;4.63;1.70;;;;;;;20.38;57.40;101755.38;5036529;28;20352;-77
2022/07/29 11:27:45;;;;;;;3.58;2.05;;;;;;;20.46;56.23;101756.53;5043185;28;20052;-77
2022/07/29 11:30:11;;;;;;;3.15;1.50;;;;;;;20.47;54.81;101752.94;5035792;28;20382;-77
2022/07/29 11:32:43;;;;;;;4.00;2.22;;;;;;;20.49;56.19;101756.31;5034799;28;20367;-77
2022/07/29 11:35:15;;;;;;;5.43;1.98;;;;;;;20.50;56.12;101759.84;5034727;28;20038;-77